createdAt,value
2018-07-30T00:01:47.640Z,90.80
2018-07-30T00:04:15.304Z,90.10
2018-07-30T00:06:42.969Z,90.00
2018-07-30T00:09:10.539Z,90.00
2018-07-30T00:11:39.415Z,90.50
2018-07-30T00:14:06.935Z,90.60
2018-07-30T00:16:34.257Z,90.10
2018-07-30T00:19:01.812Z,90.90
2018-07-30T00:21:29.279Z,91.10
2018-07-30T00:23:56.675Z,91.20
2018-07-30T00:26:23.932Z,90.90
2018-07-30T00:28:52.151Z,91.20
2018-07-30T00:31:19.623Z,91.30
2018-07-30T00:33:46.863Z,91.40
2018-07-30T00:36:14.143Z,91.60
2018-07-30T00:38:41.487Z,91.40
2018-07-30T00:41:08.786Z,92.00
2018-07-30T00:43:36.036Z,92.00
2018-07-30T00:46:03.668Z,92.20
2018-07-30T00:48:30.988Z,92.20
2018-07-30T00:50:58.236Z,92.50
2018-07-30T00:53:25.865Z,92.80
2018-07-30T00:55:53.553Z,92.60
2018-07-30T00:58:20.872Z,92.60
2018-07-30T01:00:48.591Z,92.60
2018-07-30T01:03:15.923Z,92.90
2018-07-30T01:05:50.572Z,93.10
2018-07-30T01:08:20.635Z,93.20
2018-07-30T01:10:48.039Z,93.20
2018-07-30T01:13:23.024Z,92.20
2018-07-30T01:15:50.295Z,93.70
2018-07-30T01:20:46.680Z,93.80
2018-07-30T01:23:13.946Z,93.90
2018-07-30T01:25:42.232Z,94.00
2018-07-30T01:28:09.525Z,94.20
2018-07-30T01:30:36.785Z,94.80
2018-07-30T01:33:04.802Z,95.10
2018-07-30T01:37:59.537Z,95.40
2018-07-30T01:40:26.835Z,95.70
2018-07-30T01:45:23.701Z,96.20
2018-07-30T01:47:56.909Z,96.30
2018-07-30T01:50:24.222Z,96.30
2018-07-30T01:52:51.913Z,96.50
2018-07-30T01:55:19.250Z,96.60
2018-07-30T01:57:46.531Z,96.60
2018-07-30T02:00:13.864Z,96.80
2018-07-30T02:02:42.686Z,97.10
2018-07-30T02:05:10.032Z,97.20
2018-07-30T02:07:37.918Z,97.30
2018-07-30T02:10:05.950Z,97.50
2018-07-30T02:12:33.929Z,97.60
2018-07-30T02:15:09.460Z,97.50
2018-07-30T02:17:36.860Z,97.10
2018-07-30T02:20:04.863Z,98.40
2018-07-30T02:22:32.347Z,98.40
2018-07-30T02:24:59.634Z,98.70
2018-07-30T02:27:26.907Z,98.60
2018-07-30T02:30:08.303Z,99.00
2018-07-30T02:32:36.100Z,99.10
2018-07-30T02:35:10.539Z,99.30
2018-07-30T02:37:37.948Z,99.50
2018-07-30T02:40:05.772Z,99.60
2018-07-30T02:42:33.016Z,99.60
2018-07-30T02:45:00.426Z,99.80
2018-07-30T02:47:27.699Z,99.80
2018-07-30T02:49:54.982Z,99.80
2018-07-30T02:52:25.143Z,99.90
2018-07-30T02:55:07.520Z,99.70
2018-07-30T03:00:26.731Z,99.10
2018-07-30T03:03:10.098Z,98.40
2018-07-30T03:05:37.400Z,99.30
2018-07-30T03:08:04.663Z,98.90
2018-07-30T03:10:31.979Z,98.90
2018-07-30T03:13:12.727Z,98.40
2018-07-30T03:15:40.015Z,98.90
2018-07-30T03:18:07.378Z,99.20
2018-07-30T03:20:34.675Z,98.80
2018-07-30T03:23:01.992Z,98.90
2018-07-30T03:25:29.356Z,99.20
2018-07-30T03:27:56.639Z,99.90
2018-07-30T03:30:23.930Z,99.90
2018-07-30T03:32:51.176Z,99.90
2018-07-30T03:35:18.478Z,99.90
2018-07-30T03:37:45.749Z,99.90
2018-07-30T03:40:13.033Z,99.90
2018-07-30T03:42:40.287Z,99.90
2018-07-30T03:54:57.376Z,99.90
2018-07-30T03:57:24.671Z,99.90
2018-07-30T03:59:52.283Z,99.90
2018-07-30T04:02:21.425Z,99.90
2018-07-30T04:07:16.146Z,99.90
2018-07-30T04:14:38.824Z,99.90
2018-07-30T04:17:06.112Z,99.90
2018-07-30T04:19:34.331Z,99.90
2018-07-30T04:22:01.657Z,99.90
2018-07-30T04:26:56.179Z,99.90
2018-07-30T04:29:23.716Z,99.90
2018-07-30T04:31:50.997Z,99.90
2018-07-30T04:34:18.259Z,99.90
2018-07-30T04:36:45.511Z,99.90
2018-07-30T04:39:14.220Z,99.90
2018-07-30T04:41:42.964Z,99.90
2018-07-30T04:44:10.339Z,99.90
2018-07-30T04:46:37.780Z,99.90
2018-07-30T04:49:05.083Z,99.90
2018-07-30T04:51:32.854Z,99.90
2018-07-30T04:54:00.171Z,99.90
2018-07-30T04:56:27.862Z,99.90
2018-07-30T05:01:26.119Z,99.90
2018-07-30T05:03:53.517Z,99.90
2018-07-30T05:06:20.727Z,99.90
2018-07-30T05:08:48.018Z,99.90
2018-07-30T05:11:15.336Z,99.90
2018-07-30T05:13:42.591Z,99.90
2018-07-30T05:16:09.872Z,99.90
2018-07-30T05:18:37.127Z,99.90
2018-07-30T05:21:04.383Z,99.90
2018-07-30T05:23:31.679Z,99.90
2018-07-30T05:28:26.239Z,99.90
2018-07-30T05:30:53.530Z,99.80
2018-07-30T05:33:20.803Z,99.50
2018-07-30T05:35:48.077Z,98.90
2018-07-30T05:38:15.352Z,98.70
2018-07-30T05:40:42.671Z,98.40
2018-07-30T05:43:09.953Z,98.40
2018-07-30T05:45:37.217Z,97.80
2018-07-30T05:48:04.559Z,97.60
2018-07-30T05:50:31.830Z,97.30
2018-07-30T05:52:59.064Z,97.10
2018-07-30T05:57:53.527Z,96.30
2018-07-30T06:00:20.823Z,95.70
2018-07-30T06:02:48.327Z,95.40
2018-07-30T06:05:15.575Z,95.30
2018-07-30T06:07:42.817Z,95.50
2018-07-30T06:10:10.067Z,95.00
2018-07-30T06:12:37.335Z,94.50
2018-07-30T06:15:06.445Z,94.00
2018-07-30T06:17:33.687Z,94.20
2018-07-30T06:20:00.966Z,93.90
2018-07-30T06:22:28.246Z,94.00
2018-07-30T06:24:55.505Z,92.80
2018-07-30T06:27:22.821Z,92.90
2018-07-30T06:29:50.026Z,91.70
2018-07-30T06:32:17.276Z,90.20
2018-07-30T06:34:44.523Z,89.20
2018-07-30T06:37:11.844Z,89.00
2018-07-30T06:39:39.094Z,86.70
2018-07-30T06:42:06.368Z,86.10
2018-07-30T06:44:33.629Z,81.50
2018-07-30T06:47:00.939Z,82.10
2018-07-30T06:49:28.148Z,80.80
2018-07-30T06:51:55.454Z,80.70
2018-07-30T06:54:22.661Z,80.40
2018-07-30T06:56:49.913Z,80.70
2018-07-30T07:01:46.397Z,79.10
2018-07-30T07:04:13.634Z,77.60
2018-07-30T07:06:40.880Z,74.80
2018-07-30T07:09:09.044Z,74.00
2018-07-30T07:11:36.795Z,70.80
2018-07-30T07:14:04.068Z,70.70
2018-07-30T07:16:31.316Z,68.90
2018-07-30T07:19:01.047Z,66.50
2018-07-30T07:21:28.508Z,62.00
2018-07-30T07:24:02.320Z,59.70
2018-07-30T07:26:29.642Z,58.00
2018-07-30T07:28:56.919Z,57.10
2018-07-30T07:31:24.280Z,54.10
2018-07-30T07:33:51.598Z,53.00
2018-07-30T07:38:46.717Z,50.30
2018-07-30T07:41:13.995Z,50.00
2018-07-30T07:43:41.258Z,47.50
2018-07-30T07:48:35.832Z,45.00
2018-07-30T07:51:03.566Z,44.40
2018-07-30T07:53:30.696Z,43.60
2018-07-30T07:55:58.000Z,43.60
2018-07-30T08:03:19.933Z,41.30
2018-07-30T08:05:47.179Z,41.00
2018-07-30T08:08:14.451Z,37.20
2018-07-30T08:10:41.776Z,36.40
2018-07-30T08:15:36.291Z,35.70
2018-07-30T08:18:03.663Z,36.50
2018-07-30T08:20:30.902Z,35.20
2018-07-30T08:22:58.247Z,34.30
2018-07-30T08:25:25.524Z,34.00
2018-07-30T08:27:52.787Z,34.00
2018-07-30T08:30:20.071Z,33.10
2018-07-30T08:32:47.367Z,32.50
2018-07-30T08:35:14.909Z,33.10
2018-07-30T08:42:36.695Z,31.00
2018-07-30T08:45:04.875Z,31.30
2018-07-30T08:47:32.195Z,29.80
2018-07-30T08:49:59.445Z,29.40
2018-07-30T08:52:26.795Z,29.70
2018-07-30T08:54:54.360Z,29.60
2018-07-30T08:57:22.192Z,29.20
2018-07-30T08:59:49.439Z,28.40
2018-07-30T09:02:16.910Z,27.90
2018-07-30T09:04:44.155Z,28.10
2018-07-30T09:07:11.401Z,27.70
2018-07-30T09:09:38.702Z,26.60
2018-07-30T09:14:33.288Z,26.90
2018-07-30T09:17:00.570Z,26.50
2018-07-30T09:19:27.923Z,26.90
2018-07-30T09:21:55.168Z,28.30
2018-07-30T09:24:22.431Z,27.50
2018-07-30T09:26:49.727Z,27.30
2018-07-30T09:29:16.981Z,26.50
2018-07-30T09:31:44.267Z,26.10
2018-07-30T09:34:12.523Z,25.30
2018-07-30T09:36:39.765Z,25.50
2018-07-30T09:39:08.718Z,24.70
2018-07-30T09:41:36.218Z,25.70
2018-07-30T09:44:03.515Z,25.00
2018-07-30T09:46:31.111Z,25.80
2018-07-30T09:48:58.367Z,25.40
2018-07-30T09:51:25.628Z,24.10
2018-07-30T09:53:52.939Z,23.70
2018-07-30T09:56:20.218Z,23.50
2018-07-30T09:58:47.547Z,22.50
2018-07-30T10:01:20.599Z,22.50
2018-07-30T10:03:47.850Z,22.70
2018-07-30T10:06:15.131Z,22.60
2018-07-30T10:08:42.379Z,23.40
2018-07-30T10:11:09.648Z,23.60
2018-07-30T10:13:36.916Z,23.80
2018-07-30T10:16:04.191Z,23.00
2018-07-30T10:25:53.252Z,22.70
2018-07-30T10:28:20.492Z,22.90
2018-07-30T10:30:47.857Z,21.70
2018-07-30T10:33:15.006Z,22.60
2018-07-30T10:35:42.366Z,21.20
2018-07-30T10:38:09.765Z,21.80
2018-07-30T10:40:36.921Z,21.30
2018-07-30T10:43:04.183Z,21.10
2018-07-30T10:45:31.439Z,20.50
2018-07-30T10:47:59.266Z,21.70
2018-07-30T10:50:26.526Z,21.50
2018-07-30T10:52:53.783Z,20.90
2018-07-30T10:57:48.344Z,21.70
2018-07-30T11:00:15.639Z,21.60
2018-07-30T11:02:42.890Z,21.70
2018-07-30T11:05:10.163Z,21.70
2018-07-30T11:07:37.423Z,21.10
2018-07-30T11:10:04.784Z,21.90
2018-07-30T11:12:32.034Z,21.70
2018-07-30T11:14:59.294Z,20.60
2018-07-30T11:17:26.548Z,20.00
2018-07-30T11:19:53.796Z,21.00
2018-07-30T11:22:21.019Z,20.50
2018-07-30T11:24:48.255Z,19.60
2018-07-30T11:27:15.490Z,19.20
2018-07-30T11:29:42.790Z,19.00
2018-07-30T11:32:10.168Z,18.70
2018-07-30T11:34:38.077Z,18.90
2018-07-30T11:37:05.324Z,18.90
2018-07-30T11:39:32.570Z,18.50
2018-07-30T11:41:59.848Z,18.50
2018-07-30T11:44:27.074Z,18.50
2018-07-30T11:46:54.315Z,18.20
2018-07-30T11:49:21.588Z,18.10
2018-07-30T11:51:48.876Z,18.40
2018-07-30T11:54:16.118Z,18.00
2018-07-30T11:56:43.385Z,19.20
2018-07-30T11:59:11.127Z,19.20
2018-07-30T12:01:38.389Z,18.90
2018-07-30T12:04:05.620Z,18.50
2018-07-30T12:06:32.851Z,18.60
2018-07-30T12:09:00.102Z,18.40
2018-07-30T12:11:27.379Z,19.30
2018-07-30T12:13:54.610Z,18.80
2018-07-30T12:16:21.855Z,19.00
2018-07-30T12:18:49.063Z,19.50
2018-07-30T12:21:16.322Z,20.40
2018-07-30T12:23:43.570Z,21.40
2018-07-30T12:26:10.851Z,22.30
2018-07-30T12:28:38.136Z,22.00
2018-07-30T12:31:05.625Z,23.50
2018-07-30T12:33:32.784Z,23.60
2018-07-30T12:36:00.061Z,23.10
2018-07-30T12:38:27.399Z,23.70
2018-07-30T12:40:54.631Z,24.20
2018-07-30T12:43:21.898Z,24.50
2018-07-30T12:45:49.136Z,24.90
2018-07-30T12:48:16.426Z,26.00
2018-07-30T12:50:43.880Z,25.90
2018-07-30T12:53:11.139Z,25.90
2018-07-30T12:55:38.399Z,26.70
2018-07-30T12:58:06.338Z,26.20
2018-07-30T13:03:01.164Z,26.90
2018-07-30T13:05:28.371Z,26.80
2018-07-30T13:07:55.652Z,27.80
2018-07-30T13:10:22.979Z,26.80
2018-07-30T13:12:50.234Z,27.00
2018-07-30T13:15:17.483Z,27.00
2018-07-30T13:17:45.013Z,27.30
2018-07-30T13:20:12.295Z,27.40
2018-07-30T13:22:39.564Z,27.30
2018-07-30T13:25:06.903Z,27.70
2018-07-30T13:27:34.215Z,27.70
2018-07-30T13:30:01.490Z,28.00
2018-07-30T13:32:28.782Z,28.00
2018-07-30T13:34:56.032Z,28.10
2018-07-30T13:37:23.312Z,27.90
2018-07-30T13:39:50.595Z,28.00
2018-07-30T13:42:17.861Z,27.80
2018-07-30T13:44:45.167Z,28.10
2018-07-30T13:47:12.448Z,27.80
2018-07-30T13:49:39.743Z,27.20
2018-07-30T13:52:07.026Z,28.00
2018-07-30T13:54:34.307Z,28.30
2018-07-30T13:57:01.594Z,27.90
2018-07-30T13:59:28.873Z,27.70
2018-07-30T14:01:56.106Z,27.80
2018-07-30T14:04:23.372Z,27.90
2018-07-30T14:06:50.616Z,27.80
2018-07-30T14:09:17.859Z,27.40
2018-07-30T14:11:45.160Z,28.00
2018-07-30T14:14:12.425Z,28.10
2018-07-30T14:16:40.697Z,28.30
2018-07-30T14:19:08.011Z,28.30
2018-07-30T14:21:35.304Z,27.60
2018-07-30T14:26:29.889Z,28.60
2018-07-30T14:28:57.130Z,27.50
2018-07-30T14:31:24.390Z,27.80
2018-07-30T14:33:51.626Z,27.60
2018-07-30T14:36:18.879Z,27.80
2018-07-30T14:38:46.147Z,28.10
2018-07-30T14:41:13.429Z,28.40
2018-07-30T14:46:08.134Z,28.50
2018-07-30T14:48:35.448Z,28.40
2018-07-30T14:51:02.790Z,28.50
2018-07-30T14:53:30.098Z,28.50
2018-07-30T14:55:57.358Z,29.20
2018-07-30T14:58:24.663Z,29.00
2018-07-30T15:00:51.915Z,29.20
2018-07-30T15:03:19.179Z,29.00
2018-07-30T15:05:46.494Z,29.60
2018-07-30T15:08:13.795Z,29.50
2018-07-30T15:10:41.089Z,29.30
2018-07-30T15:13:08.364Z,29.90
2018-07-30T15:15:35.728Z,29.20
2018-07-30T15:18:02.996Z,29.20
2018-07-30T15:20:30.331Z,29.70
2018-07-30T15:22:57.634Z,29.00
2018-07-30T15:25:24.925Z,29.10
2018-07-30T15:30:19.495Z,28.90
2018-07-30T15:32:46.800Z,29.00
2018-07-30T15:35:14.066Z,29.80
2018-07-30T15:37:41.591Z,29.20
2018-07-30T15:40:08.940Z,29.40
2018-07-30T15:42:36.199Z,29.20
2018-07-30T15:45:03.888Z,29.80
2018-07-30T15:47:31.196Z,28.90
2018-07-30T15:53:12.059Z,29.30
2018-07-30T15:58:11.066Z,28.80
2018-07-30T16:03:05.615Z,28.70
2018-07-30T16:08:00.573Z,29.20
2018-07-30T16:10:27.834Z,28.90
2018-07-30T16:12:55.511Z,29.10
2018-07-30T16:15:22.746Z,29.20
2018-07-30T16:17:50.073Z,30.00
2018-07-30T16:20:17.286Z,30.00
2018-07-30T16:22:44.532Z,29.20
2018-07-30T16:25:11.837Z,29.10
2018-07-30T16:35:09.856Z,29.80
2018-07-30T16:37:37.131Z,30.20
2018-07-30T16:40:11.268Z,29.80
2018-07-30T16:42:38.556Z,30.00
2018-07-30T16:45:07.174Z,29.80
2018-07-30T16:47:34.762Z,30.00
2018-07-30T16:50:06.809Z,30.40
2018-07-30T16:52:34.146Z,30.00
2018-07-30T16:55:01.460Z,30.00
2018-07-30T16:57:28.724Z,30.00
2018-07-30T16:59:56.387Z,29.70
2018-07-30T17:02:23.675Z,31.00
2018-07-30T17:04:51.058Z,29.40
2018-07-30T17:07:18.323Z,29.50
2018-07-30T17:09:45.611Z,29.60
2018-07-30T17:12:12.899Z,30.00
2018-07-30T17:17:13.630Z,29.80
2018-07-30T17:19:40.950Z,29.60
2018-07-30T17:22:08.326Z,30.00
2018-07-30T17:24:35.810Z,29.50
2018-07-30T17:27:03.140Z,29.80
2018-07-30T17:29:30.453Z,30.00
2018-07-30T17:31:57.837Z,30.10
2018-07-30T17:34:25.115Z,30.50
2018-07-30T17:36:52.622Z,30.70
2018-07-30T17:44:14.568Z,28.60
2018-07-30T17:46:41.951Z,29.20
2018-07-30T17:49:09.251Z,28.50
2018-07-30T17:56:31.339Z,31.20
2018-07-30T17:58:58.631Z,29.90
2018-07-30T18:01:25.904Z,30.30
2018-07-30T18:03:53.190Z,30.00
2018-07-30T18:06:20.477Z,30.00
2018-07-30T18:08:47.819Z,30.90
2018-07-30T18:11:15.130Z,31.40
2018-07-30T18:13:42.512Z,30.20
2018-07-30T18:16:09.782Z,30.20
2018-07-30T18:21:04.321Z,30.40
2018-07-30T18:23:31.619Z,30.50
2018-07-30T18:25:58.910Z,30.60
2018-07-30T18:28:26.365Z,30.70
2018-07-30T18:30:53.761Z,31.20
2018-07-30T18:33:21.044Z,31.80
2018-07-30T18:35:48.318Z,32.20
2018-07-30T18:40:43.128Z,33.80
2018-07-30T18:43:10.407Z,32.80
2018-07-30T18:48:05.428Z,33.70
2018-07-30T18:50:32.791Z,34.20
2018-07-30T18:53:00.051Z,34.60
2018-07-30T18:55:27.484Z,34.30
2018-07-30T18:57:54.827Z,36.20
2018-07-30T19:02:49.463Z,37.60
2018-07-30T19:07:44.039Z,38.50
2018-07-30T19:10:11.406Z,37.80
2018-07-30T19:12:38.771Z,37.10
2018-07-30T19:15:06.393Z,38.00
2018-07-30T19:20:01.647Z,38.20
2018-07-30T19:22:29.000Z,38.20
2018-07-30T19:24:57.644Z,38.10
2018-07-30T19:27:24.977Z,38.20
2018-07-30T19:29:52.253Z,39.80
2018-07-30T19:32:19.804Z,40.60
2018-07-30T19:37:14.486Z,40.60
2018-07-30T19:39:42.016Z,41.00
2018-07-30T19:42:09.338Z,41.10
2018-07-30T19:44:36.673Z,41.40
2018-07-30T19:47:03.947Z,41.30
2018-07-30T19:49:31.262Z,40.20
2018-07-30T19:51:58.612Z,39.80
2018-07-30T19:54:27.518Z,39.00
2018-07-30T19:56:55.223Z,40.00
2018-07-30T19:59:22.874Z,40.40
2018-07-30T20:01:52.993Z,41.00
2018-07-30T20:04:21.269Z,41.20
2018-07-30T20:06:49.533Z,41.60
2018-07-30T20:09:17.160Z,42.00
2018-07-30T20:11:45.061Z,42.40
2018-07-30T20:14:13.772Z,42.80
2018-07-30T20:16:42.511Z,43.00
2018-07-30T20:19:10.643Z,43.00
2018-07-30T20:21:38.592Z,44.10
2018-07-30T20:24:08.168Z,43.90
2018-07-30T20:26:35.944Z,43.40
2018-07-30T20:29:03.275Z,44.20
2018-07-30T20:31:30.652Z,44.40
2018-07-30T20:33:58.676Z,44.10
2018-07-30T20:36:25.971Z,44.30
2018-07-30T20:38:53.673Z,44.50
2018-07-30T20:41:21.676Z,44.40
2018-07-30T20:43:49.027Z,44.70
2018-07-30T20:46:16.483Z,45.50
2018-07-30T20:48:43.783Z,45.90
2018-07-30T20:51:11.305Z,46.70
2018-07-30T20:53:38.579Z,47.10
2018-07-30T20:56:05.859Z,46.80
2018-07-30T20:58:33.329Z,47.00
2018-07-30T21:01:02.708Z,47.20
2018-07-30T21:03:29.966Z,47.60
2018-07-30T21:05:57.235Z,48.20
2018-07-30T21:08:24.664Z,48.20
2018-07-30T21:10:52.226Z,48.60
2018-07-30T21:13:19.512Z,48.40
2018-07-30T21:15:46.848Z,48.60
2018-07-30T21:18:14.163Z,48.90
2018-07-30T21:20:41.855Z,49.00
2018-07-30T21:23:09.323Z,49.40
2018-07-30T21:25:36.894Z,50.00
2018-07-30T21:28:04.407Z,50.40
2018-07-30T21:30:31.711Z,50.00
2018-07-30T21:32:59.010Z,49.80
2018-07-30T21:35:26.480Z,51.10
2018-07-30T21:37:53.829Z,52.20
2018-07-30T21:40:21.167Z,53.20
2018-07-30T21:42:48.459Z,53.80
2018-07-30T21:45:15.748Z,53.90
2018-07-30T21:47:43.065Z,53.10
2018-07-30T21:52:37.889Z,53.90
2018-07-30T21:57:32.570Z,55.10
2018-07-30T21:59:59.935Z,55.40
2018-07-30T22:02:27.228Z,55.80
2018-07-30T22:04:54.773Z,55.70
2018-07-30T22:07:22.136Z,55.40
2018-07-30T22:09:49.691Z,56.10
2018-07-30T22:12:16.996Z,57.90
2018-07-30T22:14:44.352Z,60.00
2018-07-30T22:17:11.871Z,59.80
2018-07-30T22:22:06.479Z,63.00
2018-07-30T22:24:33.965Z,64.30
2018-07-30T22:27:01.289Z,63.70
2018-07-30T22:29:28.570Z,63.10
2018-07-30T22:31:55.910Z,68.00
2018-07-30T22:34:23.181Z,70.70
2018-07-30T22:36:50.711Z,71.70
2018-07-30T22:39:17.987Z,72.10
2018-07-30T22:41:45.448Z,73.30
2018-07-30T22:44:13.104Z,72.90
2018-07-30T22:46:40.898Z,72.90
2018-07-30T22:49:08.182Z,72.10
2018-07-30T22:51:35.668Z,71.70
2018-07-30T22:54:02.932Z,69.80
2018-07-30T22:56:30.642Z,72.20
2018-07-30T22:58:58.175Z,72.20
2018-07-30T23:01:25.819Z,71.60
2018-07-30T23:03:53.187Z,72.80
2018-07-30T23:06:20.504Z,73.00
2018-07-30T23:08:47.808Z,73.10
2018-07-30T23:11:15.071Z,73.30
2018-07-30T23:13:42.363Z,73.70
2018-07-30T23:18:37.989Z,74.10
2018-07-30T23:21:05.722Z,74.40
2018-07-30T23:23:33.024Z,75.90
2018-07-30T23:26:00.332Z,75.90
2018-07-30T23:33:23.432Z,76.40
2018-07-30T23:40:45.479Z,77.30
2018-07-30T23:43:13.690Z,77.80
2018-07-30T23:45:41.428Z,78.10
2018-07-30T23:48:08.696Z,78.60
2018-07-30T23:50:35.966Z,78.90
2018-07-30T23:53:03.247Z,79.30
2018-07-30T23:55:30.496Z,79.90
2018-07-30T23:57:58.337Z,80.10
